Latest Weather Observations for Williamtown

IDN60901

Issued at 1:15 pm EDT Saturday 29 November 2014 (issued every 10 minutes, with the page automatically refreshed every 10 minutes)

About weather observations | Map of Sydney area stations | Latest observations for Sydney area | Other Formats
Station Details ID: 061078 Name: WILLIAMTOWN RAAF Lat: -32.79 Lon: 151.84 Height: 9.0 m
Data from the previous 72 hours. | See also: Recent months at Williamtown
Date/Time
EDT
Tmp

°C
App
Tmp
°C
Dew
Point
°C
Rel
Hum
%
Delta-T

°C
Wind Press
QNH
hPa
Press
MSL
hPa
Rain
since
9 am
mm
Dir
 
Spd
km/h
Gust
km/h
Spd
kts
Gust
kts
29/01:00pm 25.9 23.8 15.1 51 6.5 SE 20 28 11 15 1016.6 - 0.0
29/12:30pm 25.8 24.3 15.4 52 6.3 SSE 17 22 9 12 1017.2 - 0.0
29/12:00pm 24.8 23.8 15.7 57 5.5 ESE 15 19 8 10 1017.7 1017.7 0.0
29/11:30am 25.8 25.2 13.5 46 7.2 NNW 9 13 5 7 1018.2 - 0.0
29/11:00am 24.4 23.1 11.4 44 7.3 NNE 9 17 5 9 1018.6 - 0.0
29/10:30am 23.4 22.7 14.2 56 5.4 NNW 11 19 6 10 1018.9 - 0.0
29/10:00am 23.1 22.3 15.0 60 4.8 NW 13 22 7 12 1019.2 - 0.0
29/09:30am 22.2 21.5 15.3 65 4.1 NW 13 19 7 10 1019.2 - 0.0
29/09:00am 21.2 20.0 15.1 68 3.6 NNW 15 20 8 11 1019.4 1019.4 0.0
29/08:30am 20.8 20.5 15.4 71 3.2 NNW 11 17 6 9 1019.6 - 0.0
29/08:00am 19.6 19.6 15.2 76 2.6 N 9 17 5 9 1019.6 - 0.0
29/07:30am 19.0 19.5 15.6 80 2.0 NW 7 11 4 6 1019.5 - 0.0
29/07:00am 17.9 17.9 15.3 85 1.5 NNW 9 11 5 6 1019.4 - 0.0
29/06:30am 16.1 17.2 14.5 90 0.9 NNE 2 11 1 6 1019.1 - 0.0
29/06:00am 16.4 15.7 14.3 87 1.2 NNE 11 17 6 9 1018.9 1018.9 0.0
29/05:30am 16.0 15.2 14.1 88 1.1 ENE 11 13 6 7 1018.8 - 0.0
29/05:00am 16.4 16.0 14.1 86 1.3 NE 9 11 5 6 1018.6 - 0.0
29/04:30am 17.1 16.8 14.3 83 1.6 NE 9 11 5 6 1018.4 - 0.0
29/04:00am 17.6 17.3 14.3 81 1.9 NE 9 13 5 7 1018.4 - 0.0
29/03:30am 17.5 16.9 14.5 82 1.7 NE 11 13 6 7 1018.4 - 0.0
29/03:00am 17.3 16.7 14.7 85 1.5 ENE 11 15 6 8 1018.6 1018.6 0.0
29/02:30am 17.0 17.2 14.7 86 1.3 ENE 7 11 4 6 1018.9 - 0.0
29/02:00am 17.1 16.5 14.7 86 1.4 E 11 13 6 7 1019.2 - 0.0
29/01:30am 17.5 16.9 14.7 83 1.6 E 11 13 6 7 1019.4 - 0.0
29/01:00am 17.4 17.2 14.6 83 1.6 ENE 9 13 5 7 1019.7 - 0.0
29/12:30am 17.4 17.2 14.6 83 1.6 E 9 11 5 6 1019.9 - 0.0
29/12:00am 17.3 17.1 14.7 85 1.5 E 9 9 5 5 1020.0 1020.0 0.0
 
Date/Time
EDT
Tmp

°C
App
Tmp
°C
Dew
Point
°C
Rel
Hum
%
Delta-T

°C
Wind Press
QNH
hPa
Press
MSL
hPa
Rain
since
9 am
mm
Dir
 
Spd
km/h
Gust
km/h
Spd
kts
Gust
kts
28/11:30pm 17.0 16.8 14.6 86 1.4 E 9 11 5 6 1020.1 - 0.0
28/11:00pm 16.3 15.8 13.8 85 1.4 ENE 9 11 5 6 1020.4 - 0.0
28/10:30pm 16.7 16.6 13.9 83 1.6 ENE 7 9 4 5 1020.4 - 0.0
28/10:00pm 16.8 16.9 14.0 83 1.6 E 6 7 3 4 1020.5 - 0.0
28/09:30pm 17.9 17.8 13.9 77 2.3 E 7 11 4 6 1020.5 - 0.0
28/09:00pm 18.1 17.8 13.3 73 2.7 E 7 9 4 5 1020.4 1020.4 0.0
28/08:30pm 18.6 17.9 13.1 70 3.1 E 9 11 5 6 1020.3 - 0.0
28/08:00pm 19.2 18.1 13.0 67 3.5 E 11 13 6 7 1020.4 - 0.0
28/07:30pm 19.9 18.4 13.0 64 3.9 E 13 17 7 9 1020.4 - 0.0
28/07:00pm 20.6 18.1 12.4 59 4.6 ENE 17 24 9 13 1020.5 - 0.0
28/06:30pm 21.1 18.1 12.6 58 4.8 E 20 30 11 16 1020.4 - 0.0
28/06:00pm 21.1 18.7 12.6 58 4.8 ENE 17 22 9 12 1020.3 1020.3 0.0
28/05:30pm 20.9 18.0 12.8 60 4.6 E 20 30 11 16 1020.3 - 0.0
28/05:00pm 20.9 17.9 11.9 56 5.0 E 19 26 10 14 1020.6 - 0.0
28/04:30pm 21.0 18.0 11.8 55 5.1 E 19 26 10 14 1020.8 - 0.0
28/04:00pm 21.3 18.6 11.6 54 5.4 ENE 17 24 9 13 1021.0 - 0.0
28/03:30pm 21.7 18.7 11.8 53 5.5 ESE 19 28 10 15 1021.2 - 0.0
28/03:00pm 21.4 18.3 11.7 54 5.4 E 19 24 10 13 1021.6 1021.6 0.0
28/02:30pm 21.3 18.2 11.6 54 5.4 SE 19 26 10 14 1021.8 - 0.0
28/02:00pm 21.1 17.9 11.1 52 5.5 ESE 19 26 10 14 1022.1 - 0.0
28/01:30pm 21.2 18.2 11.9 55 5.2 ESE 19 32 10 17 1022.5 - 0.0
28/01:00pm 21.4 18.2 11.2 52 5.6 ESE 19 26 10 14 1022.8 - 0.0
28/12:30pm 20.8 17.4 11.3 54 5.2 ESE 20 28 11 15 1023.2 - 0.0
28/12:00pm 21.5 18.2 11.6 53 5.5 SE 20 26 11 14 1023.3 1023.3 0.0
28/11:30am 21.0 17.8 11.8 55 5.1 SE 20 26 11 14 1023.5 - 0.0
28/11:00am 20.8 18.1 11.8 56 5.0 ESE 17 26 9 14 1023.7 - 0.0
28/10:30am 20.5 17.9 12.1 58 4.7 ESE 17 26 9 14 1023.6 - 0.0
28/10:00am 20.6 17.9 11.7 56 4.9 ESE 17 26 9 14 1023.6 - 0.0
28/09:30am 20.4 17.3 11.7 57 4.8 ESE 19 28 10 15 1023.5 - 0.0
28/09:00am 20.7 17.7 12.1 58 4.8 ESE 19 24 10 13 1023.4 1023.4 8.2
28/08:30am 20.2 17.6 12.1 59 4.5 ESE 17 22 9 12 1023.2 - 8.2
28/08:00am 20.0 17.9 12.3 61 4.3 ESE 15 20 8 11 1022.9 - 8.2
28/07:30am 19.7 17.7 12.8 64 3.9 SE 15 20 8 11 1022.5 - 8.2
28/07:00am 19.4 17.6 12.2 63 4.0 ESE 13 17 7 9 1022.1 - 8.2
28/06:30am 19.0 17.8 12.7 67 3.5 ESE 11 15 6 8 1022.1 - 8.2
28/06:00am 18.9 17.7 12.8 67 3.4 ESE 11 15 6 8 1021.9 1021.9 8.2
28/05:30am 18.8 17.4 13.3 70 3.1 ESE 13 17 7 9 1021.6 - 8.2
28/05:00am 18.7 17.7 13.4 71 3.0 ESE 11 17 6 9 1021.5 - 8.2
28/04:30am 18.7 17.6 13.0 69 3.2 ESE 11 15 6 8 1021.4 - 8.2
28/04:00am 18.5 17.0 13.2 71 3.0 ESE 13 15 7 8 1021.3 - 8.2
28/03:30am 18.4 17.2 12.9 70 3.1 SE 11 15 6 8 1021.6 - 8.2
28/03:00am 18.5 16.8 12.4 67 3.4 SE 13 17 7 9 1021.9 1021.9 8.2
28/02:30am 18.7 16.8 13.0 69 3.2 SE 15 19 8 10 1021.9 - 8.2
28/02:00am 18.9 17.3 12.8 67 3.4 SE 13 17 7 9 1022.1 - 8.2
28/01:30am 19.0 17.1 13.1 68 3.3 ESE 15 20 8 11 1022.5 - 8.2
28/01:00am 19.0 16.4 13.3 69 3.2 SE 19 26 10 14 1022.8 - 8.2
28/12:30am 19.0 17.3 13.5 70 3.1 SE 15 19 8 10 1023.0 - 8.2
28/12:00am 19.0 16.9 13.5 70 3.1 SE 17 20 9 11 1023.2 1023.2 8.2
 
Date/Time
EDT
Tmp

°C
App
Tmp
°C
Dew
Point
°C
Rel
Hum
%
Delta-T

°C
Wind Press
QNH
hPa
Press
MSL
hPa
Rain
since
9 am
mm
Dir
 
Spd
km/h
Gust
km/h
Spd
kts
Gust
kts
27/11:30pm 19.1 17.4 13.5 70 3.2 ESE 15 19 8 10 1023.3 - 8.2
27/11:00pm 19.1 17.5 13.8 71 3.0 SE 15 19 8 10 1023.5 - 8.2
27/10:30pm 19.0 17.8 13.9 72 2.9 ESE 13 17 7 9 1023.5 - 8.2
27/10:00pm 18.8 17.5 13.7 72 2.9 ESE 13 19 7 10 1023.5 - 8.2
27/09:30pm 19.4 17.0 13.8 70 3.2 ESE 19 26 10 14 1023.5 - 8.2
27/09:00pm 19.4 17.4 14.0 71 3.1 SE 17 22 9 12 1023.3 1023.3 8.2
27/08:30pm 19.4 17.4 13.8 70 3.2 ESE 17 22 9 12 1023.2 - 8.2
27/08:00pm 19.4 16.7 13.6 69 3.3 ESE 20 26 11 14 1023.0 - 8.2
27/07:30pm 19.5 17.4 13.7 69 3.3 ESE 17 26 9 14 1022.7 - 8.2
27/07:00pm 19.6 17.3 14.0 70 3.2 SE 19 26 10 14 1022.4 - 8.2
27/06:30pm 19.9 16.3 14.2 69 3.3 SE 26 35 14 19 1022.1 - 8.2
27/06:00pm 20.2 16.1 13.9 67 3.6 SE 28 35 15 19 1021.6 1021.6 8.2
27/05:30pm 20.4 16.2 14.6 69 3.4 SE 30 37 16 20 1021.4 - 8.2
27/05:00pm 20.8 16.2 14.7 68 3.6 SE 32 41 17 22 1021.4 - 8.2
27/04:30pm 20.8 16.4 15.2 70 3.3 SE 32 43 17 23 1021.3 - 8.2
27/04:00pm 21.1 16.5 14.6 66 3.8 SE 32 37 17 20 1021.3 - 8.2
27/03:30pm 21.4 17.0 15.1 67 3.7 SE 32 41 17 22 1021.3 - 8.2
27/03:00pm 21.9 18.2 15.9 68 3.6 SE 30 39 16 21 1021.3 1021.3 8.2
27/02:30pm 22.1 18.2 15.6 66 3.9 SE 30 37 16 20 1021.3 - 8.2
27/02:00pm 21.5 18.0 15.6 69 3.5 SE 28 35 15 19 1021.3 - 8.2
27/01:30pm 21.9 18.1 15.7 68 3.7 SE 30 39 16 21 1021.1 - 8.2
27/01:00pm 21.6 18.0 16.3 72 3.2 SE 30 37 16 20 1021.1 - 8.2
27/12:30pm 21.6 17.8 16.6 73 3.0 SE 32 37 17 20 1021.1 - 8.2
27/12:00pm 21.0 17.4 17.1 78 2.4 SE 32 41 17 22 1021.2 1021.2 8.2
27/11:30am 20.9 17.9 17.8 82 1.9 SE 30 37 16 20 1021.0 - 8.2
27/11:00am 20.5 18.8 18.1 86 1.5 SE 24 32 13 17 1021.2 - 8.2
27/10:30am 18.3 16.0 14.7 79 2.1 E 20 26 11 14 1021.0 - 7.2
27/10:08am 19.7 18.0 18.1 90 1.0 SE 24 32 13 17 1020.9 - 2.0
27/10:00am 20.2 18.6 18.4 89 1.1 SE 24 28 13 15 1020.8 - 0.0
27/09:30am 21.9 19.4 17.0 73 3.0 SE 26 33 14 18 1020.6 - 0.0
27/09:00am 21.6 19.5 16.1 71 3.3 SE 22 28 12 15 1020.4 1020.4 0.0
27/08:30am 21.5 19.7 16.9 75 2.8 SE 22 28 12 15 1020.0 - 0.0
27/08:00am 21.5 19.4 17.1 76 2.7 SSE 24 32 13 17 1019.7 - 0.0
27/07:30am 21.2 19.2 17.3 78 2.4 SSE 24 32 13 17 1019.3 - 0.0
27/07:00am 20.8 19.8 17.9 83 1.8 SSE 20 26 11 14 1018.9 - 0.0
27/06:30am 20.6 19.5 17.8 84 1.7 SSE 20 26 11 14 1018.2 - 0.0
27/06:00am 20.3 19.9 18.0 87 1.4 SE 17 24 9 13 1017.9 1017.9 0.0
27/05:30am 20.2 20.0 18.4 89 1.1 SSE 17 20 9 11 1017.4 - 0.0
27/05:00am 20.2 19.0 18.4 89 1.1 SE 22 28 12 15 1017.1 - 0.0
27/04:30am 20.5 19.8 18.6 89 1.2 SE 20 28 11 15 1016.8 - 0.0
27/04:00am 20.6 21.1 19.2 92 0.9 SE 15 20 8 11 1016.7 - 0.0
27/03:30am 20.9 21.2 18.7 87 1.4 ESE 15 20 8 11 1016.5 - 0.0
27/03:00am 20.8 20.4 18.9 89 1.2 ESE 19 26 10 14 1016.4 1016.4 0.0
27/02:30am 21.0 20.8 19.3 90 1.1 ESE 19 28 10 15 1016.4 - 0.0
27/02:00am 20.6 21.9 19.2 92 0.9 ESE 11 13 6 7 1016.5 - 0.0
27/01:30am 20.1 21.3 19.0 93 0.7 ESE 11 13 6 7 1016.8 - 0.0
27/01:00am 20.2 20.9 18.9 92 0.8 ESE 13 17 7 9 1016.9 - 0.0
27/12:30am 20.2 20.9 18.8 92 0.9 SE 13 17 7 9 1017.1 - 0.0
27/12:00am 20.3 20.9 18.7 90 1.0 SE 13 15 7 8 1017.4 1017.4 0.0
 
Date/Time
EDT
Tmp

°C
App
Tmp
°C
Dew
Point
°C
Rel
Hum
%
Delta-T

°C
Wind Press
QNH
hPa
Press
MSL
hPa
Rain
since
9 am
mm
Dir
 
Spd
km/h
Gust
km/h
Spd
kts
Gust
kts
26/11:30pm 20.1 20.4 17.8 86 1.4 SE 13 13 7 7 1017.5 - 0.0
26/11:00pm 19.7 20.2 17.4 86 1.4 ESE 11 11 6 6 1017.1 - 0.0
26/10:30pm 20.3 20.7 17.2 82 1.9 E 11 15 6 8 1016.9 - 0.0
26/10:00pm 20.4 21.0 16.9 80 2.1 ENE 9 11 5 6 1016.8 - 0.0
26/09:30pm 20.5 20.8 17.0 80 2.1 ESE 11 13 6 7 1016.6 - 0.0
26/09:00pm 21.3 21.9 16.9 76 2.7 ENE 9 15 5 8 1016.4 1016.4 0.0
26/08:30pm 21.6 21.8 16.7 73 3.0 ENE 11 17 6 9 1016.1 - 0.0
26/08:00pm 21.9 21.7 16.6 72 3.2 NE 13 19 7 10 1016.0 - 0.0
26/07:30pm 22.6 21.9 16.3 67 3.8 ENE 15 24 8 13 1015.8 - 0.0
26/07:00pm 23.2 21.8 16.5 66 4.1 ENE 19 28 10 15 1015.3 - 0.0
26/06:30pm 23.6 21.7 16.6 65 4.3 NE 22 35 12 19 1015.1 - 0.0
26/06:00pm 24.2 22.1 16.3 61 4.8 ENE 22 33 12 18 1014.8 1014.8 0.0
26/05:30pm 24.0 22.0 16.5 63 4.6 ENE 22 33 12 18 1014.9 - 0.0
26/05:00pm 24.3 21.9 16.3 61 4.9 ENE 24 35 13 19 1014.9 - 0.0
26/04:30pm 24.3 21.5 16.3 61 4.9 ENE 26 39 14 21 1015.2 - 0.0
26/04:00pm 24.2 21.5 16.5 62 4.7 ENE 26 37 14 20 1015.5 - 0.0
26/03:30pm 24.6 21.8 16.4 60 5.0 ENE 26 35 14 19 1015.4 - 0.0
26/03:00pm 24.4 22.5 16.8 62 4.7 ENE 22 32 12 17 1016.0 1016.0 0.0
26/02:30pm 24.1 20.9 16.4 62 4.7 ENE 28 37 15 20 1016.1 - 0.0
26/02:00pm 24.5 22.6 16.7 61 4.8 ENE 22 33 12 18 1016.3 - 0.0
26/01:30pm 24.1 22.6 16.4 62 4.7 ENE 19 28 10 15 1016.7 - 0.0

Latest Capital City Observations: Canberra | Sydney | Melbourne | Brisbane | Adelaide | Perth | Hobart | Darwin

Other Formats:

Comma delimited format used in spreadsheet applications
http://www.bom.gov.au/fwo/IDN60901/IDN60901.94776.axf

JavaScript Object Notation format (JSON) in row-major order
http://www.bom.gov.au/fwo/IDN60901/IDN60901.94776.json